createdAt,value
2022-10-13T00:00:45.467Z,14.70
2022-10-13T00:03:12.859Z,14.70
2022-10-13T00:05:45.229Z,14.70
2022-10-13T00:08:13.408Z,14.60
2022-10-13T00:10:40.927Z,14.70
2022-10-13T00:13:08.514Z,14.60
2022-10-13T00:15:42.974Z,14.60
2022-10-13T00:18:09.668Z,14.60
2022-10-13T00:20:40.279Z,14.60
2022-10-13T00:23:06.928Z,14.60
2022-10-13T00:25:33.644Z,14.60
2022-10-13T00:28:00.328Z,14.60
2022-10-13T00:30:27.081Z,14.60
2022-10-13T00:32:53.712Z,14.60
2022-10-13T00:35:20.358Z,14.60
2022-10-13T00:37:47.109Z,14.60
2022-10-13T00:40:13.833Z,14.50
2022-10-13T00:42:41.753Z,14.50
2022-10-13T00:45:22.332Z,14.50
2022-10-13T00:47:54.620Z,14.50
2022-10-13T00:50:29.916Z,14.40
2022-10-13T00:52:57.276Z,14.50
2022-10-13T00:55:27.899Z,14.40
2022-10-13T00:57:56.065Z,14.40
2022-10-13T01:00:24.249Z,14.40
2022-10-13T01:02:51.510Z,14.40
2022-10-13T01:05:20.742Z,14.40
2022-10-13T01:07:51.910Z,14.40
2022-10-13T01:10:48.224Z,14.30
2022-10-13T01:13:39.929Z,14.40
2022-10-13T01:16:24.113Z,14.40
2022-10-13T01:19:40.226Z,14.40
2022-10-13T01:22:16.538Z,14.40
2022-10-13T01:25:15.020Z,14.30
2022-10-13T01:27:44.461Z,14.40
2022-10-13T01:30:19.810Z,14.40
2022-10-13T01:32:57.719Z,14.40
2022-10-13T01:35:31.036Z,14.30
2022-10-13T01:38:22.018Z,14.30
2022-10-13T01:41:14.630Z,14.30
2022-10-13T01:43:51.829Z,14.30
2022-10-13T01:46:21.987Z,14.30
2022-10-13T01:48:51.730Z,14.30
2022-10-13T01:51:21.404Z,14.30
2022-10-13T01:53:49.072Z,14.40
2022-10-13T01:56:16.493Z,14.30
2022-10-13T01:58:44.593Z,14.40
2022-10-13T02:01:42.233Z,14.40
2022-10-13T02:04:17.739Z,14.40
2022-10-13T02:07:02.058Z,14.40
2022-10-13T02:09:38.068Z,14.40
2022-10-13T02:12:33.345Z,14.40
2022-10-13T02:15:01.229Z,14.40
2022-10-13T02:17:28.824Z,14.40
2022-10-13T02:19:56.493Z,14.40
2022-10-13T02:22:32.383Z,14.40
2022-10-13T02:24:59.889Z,14.40
2022-10-13T02:27:26.822Z,14.40
2022-10-13T02:29:56.446Z,14.40
2022-10-13T02:32:23.901Z,14.40
2022-10-13T02:34:51.330Z,14.40
2022-10-13T02:37:18.299Z,14.40
2022-10-13T02:39:45.098Z,14.40
2022-10-13T02:42:12.115Z,14.40
2022-10-13T02:44:40.053Z,14.40
2022-10-13T02:47:06.702Z,14.40
2022-10-13T02:49:33.375Z,14.40
2022-10-13T02:52:00.006Z,14.40
2022-10-13T02:54:26.624Z,14.40
2022-10-13T02:56:53.395Z,14.40
2022-10-13T02:59:20.025Z,14.40
2022-10-13T03:01:46.676Z,14.40
2022-10-13T03:04:13.331Z,14.40
2022-10-13T03:06:39.985Z,14.40
2022-10-13T03:09:06.685Z,14.40
2022-10-13T03:11:34.080Z,14.40
2022-10-13T03:14:00.922Z,14.40
2022-10-13T03:16:27.560Z,14.40
2022-10-13T03:18:54.436Z,14.40
2022-10-13T03:21:21.146Z,14.40
2022-10-13T03:23:47.876Z,14.40
2022-10-13T03:26:15.508Z,14.40
2022-10-13T03:28:42.415Z,14.40
2022-10-13T03:31:11.168Z,14.40
2022-10-13T03:33:37.797Z,14.40
2022-10-13T03:36:07.437Z,14.40
2022-10-13T03:38:35.413Z,14.50
2022-10-13T03:41:07.126Z,14.50
2022-10-13T03:43:34.249Z,14.50
2022-10-13T03:46:03.142Z,14.50
2022-10-13T03:48:30.598Z,14.50
2022-10-13T03:50:58.135Z,14.50
2022-10-13T03:53:25.509Z,14.50
2022-10-13T03:55:54.645Z,14.50
2022-10-13T03:58:23.688Z,14.50
2022-10-13T04:00:50.917Z,14.50
2022-10-13T04:03:18.490Z,14.50
2022-10-13T04:05:45.232Z,14.50
2022-10-13T04:08:12.426Z,14.50
2022-10-13T04:10:39.631Z,14.50
2022-10-13T04:13:06.794Z,14.50
2022-10-13T04:15:40.563Z,14.50
2022-10-13T04:18:08.438Z,14.40
2022-10-13T04:20:39.869Z,14.40
2022-10-13T04:23:07.452Z,14.40
2022-10-13T04:25:38.160Z,14.40
2022-10-13T04:28:06.417Z,14.40
2022-10-13T04:30:34.983Z,14.40
2022-10-13T04:33:01.696Z,14.30
2022-10-13T04:35:28.630Z,14.30
2022-10-13T04:37:57.909Z,14.30
2022-10-13T04:40:26.179Z,14.30
2022-10-13T04:42:52.909Z,14.30
2022-10-13T04:45:19.584Z,14.30
2022-10-13T04:47:46.275Z,14.20
2022-10-13T04:50:13.209Z,14.20
2022-10-13T04:52:39.840Z,14.20
2022-10-13T04:55:07.174Z,14.20
2022-10-13T04:57:33.848Z,14.20
2022-10-13T05:00:00.602Z,14.20
2022-10-13T05:02:28.117Z,14.10
2022-10-13T05:04:54.769Z,14.10
2022-10-13T05:07:21.778Z,14.10
2022-10-13T05:09:48.517Z,14.10
2022-10-13T05:12:15.551Z,14.10
2022-10-13T05:14:42.201Z,14.10
2022-10-13T05:17:08.889Z,14.10
2022-10-13T05:19:36.286Z,14.10
2022-10-13T05:22:02.984Z,14.00
2022-10-13T05:24:39.074Z,14.00
2022-10-13T05:27:09.754Z,14.00
2022-10-13T05:29:37.072Z,14.10
2022-10-13T05:32:04.537Z,14.10
2022-10-13T05:34:32.592Z,14.10
2022-10-13T05:37:00.313Z,14.10
2022-10-13T05:39:27.227Z,14.10
2022-10-13T05:41:53.919Z,14.10
2022-10-13T05:44:21.764Z,14.10
2022-10-13T05:46:48.501Z,14.10
2022-10-13T05:49:15.705Z,14.10
2022-10-13T05:51:50.554Z,14.10
2022-10-13T05:54:23.131Z,14.10
2022-10-13T05:57:11.126Z,14.20
2022-10-13T05:59:42.909Z,14.20
2022-10-13T06:02:12.468Z,14.20
2022-10-13T06:04:44.696Z,14.20
2022-10-13T06:07:12.089Z,14.30
2022-10-13T06:09:41.660Z,14.20
2022-10-13T06:12:09.909Z,14.20
2022-10-13T06:14:36.784Z,14.30
2022-10-13T06:17:03.552Z,14.30
2022-10-13T06:19:30.312Z,14.30
2022-10-13T06:22:00.010Z,14.30
2022-10-13T06:24:29.514Z,14.30
2022-10-13T06:26:56.208Z,14.30
2022-10-13T06:29:22.933Z,14.30
2022-10-13T06:31:49.610Z,14.30
2022-10-13T06:34:16.420Z,14.30
2022-10-13T06:36:43.181Z,14.30
2022-10-13T06:39:10.369Z,14.40
2022-10-13T06:41:37.078Z,14.40
2022-10-13T06:44:04.031Z,14.40
2022-10-13T06:46:30.739Z,14.40
2022-10-13T06:48:57.479Z,14.40
2022-10-13T06:51:24.385Z,14.40
2022-10-13T06:53:51.230Z,14.40
2022-10-13T06:56:17.999Z,14.40
2022-10-13T06:58:44.817Z,14.40
2022-10-13T07:01:13.438Z,14.50
2022-10-13T07:03:40.282Z,14.50
2022-10-13T07:06:07.864Z,14.50
2022-10-13T07:08:35.675Z,14.50
2022-10-13T07:11:16.253Z,14.50
2022-10-13T07:13:46.450Z,14.50
2022-10-13T07:16:15.266Z,14.50
2022-10-13T07:18:41.985Z,14.50
2022-10-13T07:21:09.507Z,14.50
2022-10-13T07:23:36.189Z,14.50
2022-10-13T07:26:08.127Z,14.50
2022-10-13T07:28:35.108Z,14.50
2022-10-13T07:31:15.451Z,14.50
2022-10-13T07:33:44.456Z,14.60
2022-10-13T07:36:12.082Z,14.60
2022-10-13T07:38:39.085Z,14.60
2022-10-13T07:41:07.934Z,14.60
2022-10-13T07:43:35.013Z,14.60
2022-10-13T07:46:04.890Z,14.60
2022-10-13T07:48:32.607Z,14.60
2022-10-13T07:51:02.819Z,14.60
2022-10-13T07:53:29.530Z,14.70
2022-10-13T07:56:00.442Z,14.70
2022-10-13T07:58:27.333Z,14.70
2022-10-13T08:01:01.842Z,14.70
2022-10-13T08:03:28.949Z,14.80
2022-10-13T08:05:58.396Z,14.80
2022-10-13T08:08:25.239Z,14.80
2022-10-13T08:10:52.080Z,14.80
2022-10-13T08:13:18.959Z,14.90
2022-10-13T08:15:46.697Z,14.90
2022-10-13T08:18:14.573Z,14.90
2022-10-13T08:20:45.689Z,14.90
2022-10-13T08:23:13.667Z,15.00
2022-10-13T08:25:41.975Z,15.00
2022-10-13T08:28:21.835Z,15.00
2022-10-13T08:30:50.401Z,15.00
2022-10-13T08:33:17.425Z,15.10
2022-10-13T08:35:44.087Z,15.10
2022-10-13T08:38:10.909Z,15.10
2022-10-13T08:40:38.832Z,15.10
2022-10-13T08:43:09.231Z,15.20
2022-10-13T08:45:41.205Z,15.20
2022-10-13T08:48:26.039Z,15.30
2022-10-13T08:50:56.583Z,15.40
2022-10-13T08:53:34.358Z,15.50
2022-10-13T08:56:21.285Z,15.50
2022-10-13T08:58:50.021Z,15.60
2022-10-13T09:01:18.714Z,15.60
2022-10-13T09:03:48.784Z,15.60
2022-10-13T09:06:21.718Z,15.70
2022-10-13T09:08:51.210Z,15.70
2022-10-13T09:11:18.431Z,15.80
2022-10-13T09:13:45.250Z,15.80
2022-10-13T09:16:11.957Z,15.90
2022-10-13T09:18:38.819Z,15.90
2022-10-13T09:21:20.254Z,16.00
2022-10-13T09:23:49.931Z,16.00
2022-10-13T09:26:23.412Z,16.00
2022-10-13T09:28:52.481Z,16.10
2022-10-13T09:31:30.235Z,16.10
2022-10-13T09:34:02.076Z,16.10
2022-10-13T09:36:29.287Z,16.10
2022-10-13T09:39:15.657Z,16.10
2022-10-13T09:41:43.842Z,16.20
2022-10-13T09:44:17.834Z,16.20
2022-10-13T09:46:51.753Z,16.20
2022-10-13T09:49:42.650Z,16.20
2022-10-13T09:52:12.096Z,16.20
2022-10-13T09:54:48.203Z,16.20
2022-10-13T09:57:20.898Z,16.20
2022-10-13T09:59:54.209Z,16.20
2022-10-13T10:02:38.170Z,16.30
2022-10-13T10:05:34.972Z,16.30
2022-10-13T10:08:33.580Z,16.30
2022-10-13T10:11:05.118Z,16.30
2022-10-13T10:13:31.986Z,16.40
2022-10-13T10:16:07.652Z,16.40
2022-10-13T10:18:57.751Z,16.40
2022-10-13T10:21:41.777Z,16.50
2022-10-13T10:24:24.620Z,16.50
2022-10-13T10:26:55.117Z,16.50
2022-10-13T10:29:50.458Z,16.50
2022-10-13T10:32:20.276Z,16.50
2022-10-13T10:35:04.472Z,16.50
2022-10-13T10:37:39.841Z,16.50
2022-10-13T10:40:29.515Z,16.50
2022-10-13T10:43:16.438Z,16.50
2022-10-13T10:45:45.093Z,16.50
2022-10-13T10:48:24.113Z,16.60
2022-10-13T10:50:54.720Z,16.60
2022-10-13T10:53:38.154Z,16.60
2022-10-13T10:56:15.778Z,16.60
2022-10-13T10:59:06.792Z,16.60
2022-10-13T11:01:52.143Z,16.60
2022-10-13T11:04:41.839Z,16.70
2022-10-13T11:07:23.583Z,16.70
2022-10-13T11:09:53.969Z,16.70
2022-10-13T11:12:21.191Z,16.70
2022-10-13T11:14:54.281Z,16.70
2022-10-13T11:17:39.131Z,16.70
2022-10-13T11:20:20.751Z,16.70
2022-10-13T11:22:59.662Z,16.80
2022-10-13T11:25:35.671Z,16.70
2022-10-13T11:28:22.516Z,16.80
2022-10-13T11:31:18.029Z,16.90
2022-10-13T11:33:46.631Z,16.90
2022-10-13T11:36:55.759Z,16.90
2022-10-13T11:39:28.233Z,16.90
2022-10-13T11:42:16.395Z,16.90
2022-10-13T11:44:59.630Z,16.90
2022-10-13T11:47:48.057Z,16.90
2022-10-13T11:50:14.727Z,17.00
2022-10-13T11:53:01.234Z,17.00
2022-10-13T11:55:48.845Z,17.00
2022-10-13T11:58:19.243Z,17.00
2022-10-13T12:00:53.379Z,17.00
2022-10-13T12:03:32.180Z,17.10
2022-10-13T12:06:22.032Z,17.10
2022-10-13T12:08:51.077Z,17.20
2022-10-13T12:11:25.801Z,17.30
2022-10-13T12:13:52.945Z,17.40
2022-10-13T12:16:20.927Z,17.40
2022-10-13T12:18:47.850Z,17.50
2022-10-13T12:21:21.177Z,17.50
2022-10-13T12:23:49.570Z,17.50
2022-10-13T12:26:22.844Z,17.60
2022-10-13T12:28:56.751Z,17.60
2022-10-13T12:31:40.383Z,17.60
2022-10-13T12:34:35.866Z,17.70
2022-10-13T12:37:11.513Z,17.80
2022-10-13T12:39:39.280Z,17.90
2022-10-13T12:42:10.828Z,18.10
2022-10-13T12:44:38.129Z,18.30
2022-10-13T12:47:04.918Z,18.60
2022-10-13T12:49:33.441Z,18.70
2022-10-13T12:52:09.051Z,18.90
2022-10-13T12:54:48.529Z,19.00
2022-10-13T12:57:22.397Z,19.10
2022-10-13T12:59:49.733Z,19.10
2022-10-13T13:02:27.076Z,19.10
2022-10-13T13:04:54.096Z,19.10
2022-10-13T13:07:28.157Z,19.00
2022-10-13T13:10:15.865Z,19.00
2022-10-13T13:12:44.106Z,19.10
2022-10-13T13:15:34.130Z,19.10
2022-10-13T13:18:39.770Z,19.10
2022-10-13T13:21:12.885Z,19.00
2022-10-13T13:23:40.390Z,18.90
2022-10-13T13:26:13.224Z,18.80
2022-10-13T13:28:46.140Z,18.80
2022-10-13T13:31:17.405Z,18.70
2022-10-13T13:33:44.294Z,18.70
2022-10-13T13:36:15.498Z,18.60
2022-10-13T13:38:42.319Z,18.60
2022-10-13T13:41:11.523Z,18.50
2022-10-13T13:43:38.627Z,18.50
2022-10-13T13:46:07.194Z,18.50
2022-10-13T13:48:34.084Z,18.50
2022-10-13T13:51:00.940Z,18.40
2022-10-13T13:53:27.690Z,18.40
2022-10-13T13:55:54.493Z,18.40
2022-10-13T13:58:21.385Z,18.40
2022-10-13T14:00:48.283Z,18.40
2022-10-13T14:03:19.269Z,18.40
2022-10-13T14:05:46.356Z,18.40
2022-10-13T14:08:13.001Z,18.30
2022-10-13T14:10:41.132Z,18.30
2022-10-13T14:13:07.940Z,18.30
2022-10-13T14:15:34.627Z,18.30
2022-10-13T14:18:01.369Z,18.20
2022-10-13T14:20:28.273Z,18.20
2022-10-13T14:22:55.031Z,18.20
2022-10-13T14:25:21.853Z,18.20
2022-10-13T14:27:48.594Z,18.20
2022-10-13T14:30:15.785Z,18.20
2022-10-13T14:32:42.918Z,18.20
2022-10-13T14:35:09.598Z,18.20
2022-10-13T14:37:36.496Z,18.20
2022-10-13T14:40:03.668Z,18.20
2022-10-13T14:42:30.386Z,18.20
2022-10-13T14:44:57.053Z,18.20
2022-10-13T14:47:24.112Z,18.20
2022-10-13T14:49:50.854Z,18.20
2022-10-13T14:52:18.116Z,18.20
2022-10-13T14:54:45.294Z,18.10
2022-10-13T14:57:15.909Z,18.10
2022-10-13T14:59:43.402Z,18.10
2022-10-13T15:02:13.800Z,18.10
2022-10-13T15:04:40.589Z,18.10
2022-10-13T15:07:07.702Z,18.10
2022-10-13T15:09:45.506Z,18.00
2022-10-13T15:12:20.915Z,18.00
2022-10-13T15:14:47.846Z,18.00
2022-10-13T15:17:14.601Z,17.90
2022-10-13T15:19:41.323Z,17.90
2022-10-13T15:22:08.119Z,17.80
2022-10-13T15:24:34.916Z,17.80
2022-10-13T15:27:01.700Z,17.80
2022-10-13T15:29:28.476Z,17.80
2022-10-13T15:32:08.857Z,17.80
2022-10-13T15:34:35.710Z,17.80
2022-10-13T15:37:02.640Z,17.70
2022-10-13T15:39:29.374Z,17.70
2022-10-13T15:41:56.700Z,17.70
2022-10-13T15:44:27.196Z,17.70
2022-10-13T15:47:07.502Z,17.70
2022-10-13T15:49:39.931Z,17.60
2022-10-13T15:52:06.754Z,17.60
2022-10-13T15:54:33.634Z,17.60
2022-10-13T15:57:00.532Z,17.50
2022-10-13T15:59:27.355Z,17.50
2022-10-13T16:01:54.106Z,17.50
2022-10-13T16:04:20.961Z,17.50
2022-10-13T16:06:47.660Z,17.50
2022-10-13T16:09:14.382Z,17.40
2022-10-13T16:11:41.694Z,17.40
2022-10-13T16:14:09.193Z,17.40
2022-10-13T16:16:35.881Z,17.40
2022-10-13T16:19:02.708Z,17.40
2022-10-13T16:21:29.532Z,17.30
2022-10-13T16:23:56.772Z,17.30
2022-10-13T16:26:23.750Z,17.30
2022-10-13T16:28:54.650Z,17.30
2022-10-13T16:31:21.504Z,17.30
2022-10-13T16:33:48.581Z,17.30
2022-10-13T16:36:18.455Z,17.30
2022-10-13T16:38:46.724Z,17.30
2022-10-13T16:41:18.339Z,17.20
2022-10-13T16:43:45.790Z,17.20
2022-10-13T16:46:14.866Z,17.20
2022-10-13T16:48:42.819Z,17.20
2022-10-13T16:51:13.385Z,17.20
2022-10-13T16:53:40.720Z,17.10
2022-10-13T16:56:08.443Z,17.10
2022-10-13T16:58:35.659Z,17.10
2022-10-13T17:01:08.847Z,17.10
2022-10-13T17:03:36.917Z,17.10
2022-10-13T17:06:04.006Z,17.10
2022-10-13T17:08:31.258Z,17.10
2022-10-13T17:11:00.018Z,17.10
2022-10-13T17:13:27.251Z,17.10
2022-10-13T17:15:56.160Z,17.10
2022-10-13T17:18:24.043Z,17.10
2022-10-13T17:21:02.097Z,17.00
2022-10-13T17:23:29.986Z,17.00
2022-10-13T17:26:01.635Z,17.00
2022-10-13T17:28:28.608Z,17.00
2022-10-13T17:31:00.033Z,17.00
2022-10-13T17:33:31.689Z,16.90
2022-10-13T17:36:03.455Z,16.90
2022-10-13T17:38:30.872Z,16.90
2022-10-13T17:41:06.489Z,16.90
2022-10-13T17:43:35.043Z,16.90
2022-10-13T17:46:34.389Z,16.90
2022-10-13T17:48:57.262Z,16.90
2022-10-13T17:51:24.649Z,16.90
2022-10-13T17:53:52.472Z,16.90
2022-10-13T17:56:24.358Z,16.90
2022-10-13T17:58:52.487Z,16.80
2022-10-13T18:01:25.815Z,16.80
2022-10-13T18:03:58.684Z,16.80
2022-10-13T18:06:26.867Z,16.80
2022-10-13T18:08:53.692Z,16.80
2022-10-13T18:11:22.457Z,16.80
2022-10-13T18:13:49.845Z,16.80
2022-10-13T18:16:22.458Z,16.80
2022-10-13T18:18:50.667Z,16.80
2022-10-13T18:21:22.311Z,16.80
2022-10-13T18:23:49.192Z,16.70
2022-10-13T18:26:18.624Z,16.80
2022-10-13T18:28:47.152Z,16.80
2022-10-13T18:31:27.708Z,16.70
2022-10-13T18:33:59.449Z,16.70
2022-10-13T18:36:37.158Z,16.70
2022-10-13T18:39:13.893Z,16.70
2022-10-13T18:41:41.860Z,16.70
2022-10-13T18:44:09.421Z,16.70
2022-10-13T18:46:37.518Z,16.70
2022-10-13T18:49:06.251Z,16.70
2022-10-13T18:51:36.127Z,16.70
2022-10-13T18:54:03.995Z,16.70
2022-10-13T18:56:32.129Z,16.70
2022-10-13T18:59:02.008Z,16.70
2022-10-13T19:01:35.457Z,16.70
2022-10-13T19:04:02.802Z,16.70
2022-10-13T19:06:32.326Z,16.70
2022-10-13T19:09:08.848Z,16.60
2022-10-13T19:11:36.306Z,16.60
2022-10-13T19:14:05.761Z,16.60
2022-10-13T19:16:37.094Z,16.60
2022-10-13T19:19:03.921Z,16.60
2022-10-13T19:21:32.110Z,16.60
2022-10-13T19:24:00.014Z,16.60
2022-10-13T19:26:30.647Z,16.60
2022-10-13T19:29:00.758Z,16.60
2022-10-13T19:31:29.450Z,16.60
2022-10-13T19:33:57.478Z,16.60
2022-10-13T19:36:25.827Z,16.60
2022-10-13T19:38:53.165Z,16.60
2022-10-13T19:41:20.082Z,16.60
2022-10-13T19:43:47.215Z,16.50
2022-10-13T19:46:14.810Z,16.50
2022-10-13T19:48:41.809Z,16.50
2022-10-13T19:51:10.657Z,16.50
2022-10-13T19:53:38.531Z,16.50
2022-10-13T19:56:06.719Z,16.50
2022-10-13T19:58:34.596Z,16.50
2022-10-13T20:01:06.915Z,16.50
2022-10-13T20:03:34.106Z,16.50
2022-10-13T20:06:05.427Z,16.50
2022-10-13T20:08:32.440Z,16.50
2022-10-13T20:11:00.789Z,16.50
2022-10-13T20:13:28.202Z,16.50
2022-10-13T20:15:55.494Z,16.50
2022-10-13T20:18:22.487Z,16.40
2022-10-13T20:20:49.534Z,16.40
2022-10-13T20:23:16.701Z,16.40
2022-10-13T20:25:43.559Z,16.40
2022-10-13T20:28:10.612Z,16.40
2022-10-13T20:30:39.866Z,16.40
2022-10-13T20:33:06.805Z,16.40
2022-10-13T20:35:33.638Z,16.40
2022-10-13T20:38:00.551Z,16.30
2022-10-13T20:40:27.343Z,16.30
2022-10-13T20:42:54.362Z,16.30
2022-10-13T20:45:21.219Z,16.30
2022-10-13T20:47:48.808Z,16.30
2022-10-13T20:50:15.832Z,16.30
2022-10-13T20:52:42.889Z,16.30
2022-10-13T20:55:10.303Z,16.30
2022-10-13T20:57:37.196Z,16.30
2022-10-13T21:00:05.864Z,16.30
2022-10-13T21:02:33.032Z,16.30
2022-10-13T21:04:59.759Z,16.30
2022-10-13T21:07:28.517Z,16.20
2022-10-13T21:09:55.344Z,16.20
2022-10-13T21:12:22.064Z,16.20
2022-10-13T21:14:49.071Z,16.20
2022-10-13T21:17:16.000Z,16.20
2022-10-13T21:19:42.796Z,16.20
2022-10-13T21:22:09.594Z,16.20
2022-10-13T21:24:36.315Z,16.20
2022-10-13T21:27:03.409Z,16.20
2022-10-13T21:29:30.259Z,16.20
2022-10-13T21:31:57.080Z,16.10
2022-10-13T21:34:23.819Z,16.10
2022-10-13T21:36:50.536Z,16.10
2022-10-13T21:39:17.280Z,16.10
2022-10-13T21:41:44.014Z,16.10
2022-10-13T21:44:14.081Z,16.10
2022-10-13T21:46:41.202Z,16.10
2022-10-13T21:49:07.911Z,16.10
2022-10-13T21:51:39.853Z,16.00
2022-10-13T21:54:12.298Z,16.00
2022-10-13T21:56:40.593Z,16.00
2022-10-13T21:59:08.859Z,16.00
2022-10-13T22:01:35.603Z,16.00
2022-10-13T22:04:02.789Z,16.00
2022-10-13T22:06:31.965Z,16.00
2022-10-13T22:09:01.675Z,16.00
2022-10-13T22:11:30.457Z,16.00
2022-10-13T22:13:57.946Z,16.00
2022-10-13T22:16:30.806Z,16.00
2022-10-13T22:18:58.323Z,16.00
2022-10-13T22:21:28.493Z,15.90
2022-10-13T22:24:00.649Z,15.90
2022-10-13T22:26:30.107Z,15.90
2022-10-13T22:29:01.389Z,15.90
2022-10-13T22:31:29.023Z,15.90
2022-10-13T22:33:56.133Z,15.90
2022-10-13T22:36:24.946Z,15.90
2022-10-13T22:38:54.094Z,15.90
2022-10-13T22:41:21.091Z,15.90
2022-10-13T22:43:55.864Z,15.90
2022-10-13T22:46:25.097Z,15.90
2022-10-13T22:48:52.096Z,15.90
2022-10-13T22:51:20.966Z,15.90
2022-10-13T22:53:49.008Z,15.90
2022-10-13T22:56:18.920Z,15.90
2022-10-13T22:58:53.231Z,15.90
2022-10-13T23:01:20.778Z,15.90
2022-10-13T23:03:56.782Z,15.90
2022-10-13T23:06:30.232Z,15.90
2022-10-13T23:08:59.669Z,15.90
2022-10-13T23:11:26.580Z,15.90
2022-10-13T23:13:53.271Z,15.90
2022-10-13T23:16:24.996Z,15.90
2022-10-13T23:18:52.137Z,15.90
2022-10-13T23:21:20.697Z,15.90
2022-10-13T23:23:47.808Z,15.80
2022-10-13T23:26:16.749Z,15.90
2022-10-13T23:28:44.371Z,15.80
2022-10-13T23:31:14.217Z,15.80
2022-10-13T23:33:41.350Z,15.80
2022-10-13T23:36:10.682Z,15.80
2022-10-13T23:38:37.599Z,15.80
2022-10-13T23:41:09.600Z,15.80
2022-10-13T23:43:36.408Z,15.80
2022-10-13T23:46:03.721Z,15.80
2022-10-13T23:48:30.639Z,15.80
2022-10-13T23:50:57.870Z,15.80
2022-10-13T23:53:24.979Z,15.80
2022-10-13T23:55:51.665Z,15.80
2022-10-13T23:58:18.399Z,15.80
